Time;durP1;ratioP1;P1;durP2;ratioP2;P2;SDS_P1;SDS_P2;PMS_P1;PMS_P2;Temp;Humidity;BMP_temperature;BMP_pressure;BME280_temperature;BME280_humidity;BME280_pressure;Samples;Min_cycle;Max_cycle;Signal;HPM_P1;HPM_P2
2022/01/04 00:00:50;;;;;;;9.05;7.30;;;;;;;8.37;100.00;100136.03;10456348;28;20520;-59
2022/01/04 00:05:53;;;;;;;9.80;6.70;;;;;;;8.39;100.00;100134.22;10457362;28;20060;-58
2022/01/04 00:11:06;;;;;;;8.13;6.80;;;;;;;8.27;100.00;100122.72;10457288;28;20053;-59
2022/01/04 00:16:10;;;;;;;8.25;6.88;;;;;;;8.35;100.00;100114.44;10457274;28;20045;-60
2022/01/04 00:21:12;;;;;;;10.13;7.22;;;;;;;8.36;100.00;100103.91;10456461;28;20045;-59
2022/01/04 00:26:15;;;;;;;9.55;7.45;;;;;;;8.31;100.00;100086.88;10473096;28;20053;-58
2022/01/04 00:31:17;;;;;;;9.70;7.70;;;;;;;8.38;100.00;100078.56;10456780;28;20049;-59
2022/01/04 00:36:20;;;;;;;9.85;7.20;;;;;;;8.24;100.00;100067.28;10456402;28;20119;-58
2022/01/04 00:41:22;;;;;;;11.18;7.00;;;;;;;8.35;100.00;100051.84;10456449;28;20060;-59
2022/01/04 00:46:24;;;;;;;10.65;7.50;;;;;;;8.15;100.00;100034.78;10456409;28;20072;-57
2022/01/04 00:51:27;;;;;;;13.07;7.88;;;;;;;8.36;100.00;100028.28;10456324;28;20404;-59
2022/01/04 00:56:29;;;;;;;10.68;7.25;;;;;;;8.08;100.00;100023.03;10456945;28;20072;-58
2022/01/04 01:01:32;;;;;;;9.98;7.15;;;;;;;8.05;100.00;100018.81;10456020;28;20489;-59
2022/01/04 01:06:35;;;;;;;13.85;7.95;;;;;;;8.16;100.00;100013.81;10452536;28;20083;-58
2022/01/04 01:11:37;;;;;;;10.60;9.10;;;;;;;8.26;100.00;99990.66;10456150;28;20056;-58
2022/01/04 01:16:39;;;;;;;11.38;8.23;;;;;;;8.11;100.00;99997.63;10455619;28;20052;-58
2022/01/04 01:21:42;;;;;;;14.15;8.25;;;;;;;8.13;100.00;99997.53;10455640;28;20409;-57
2022/01/04 01:26:45;;;;;;;11.70;8.48;;;;;;;8.05;100.00;99986.72;10454535;28;20049;-59
2022/01/04 01:31:48;;;;;;;11.80;9.00;;;;;;;7.91;100.00;99984.94;10455605;28;20056;-58
2022/01/04 01:36:50;;;;;;;10.18;7.90;;;;;;;8.10;100.00;99984.66;10455465;28;20049;-59
2022/01/04 01:41:53;;;;;;;13.02;9.00;;;;;;;8.04;100.00;99977.25;10455052;28;20493;-58
2022/01/04 01:46:55;;;;;;;11.48;7.93;;;;;;;8.04;100.00;99974.63;10471238;28;20055;-57
2022/01/04 01:51:58;;;;;;;15.25;10.10;;;;;;;8.07;100.00;99972.66;10466485;28;20045;-59
2022/01/04 01:57:00;;;;;;;9.00;8.05;;;;;;;8.17;100.00;99957.31;10462650;28;20049;-59
2022/01/04 02:02:03;;;;;;;12.32;8.88;;;;;;;8.01;100.00;99954.78;10462370;28;20060;-57
2022/01/04 02:07:07;;;;;;;9.30;8.32;;;;;;;8.06;100.00;99954.50;10462196;28;20049;-59
2022/01/04 02:12:10;;;;;;;13.77;8.55;;;;;;;7.91;100.00;99946.66;10460603;28;20421;-59
2022/01/04 02:17:12;;;;;;;10.13;7.82;;;;;;;7.99;100.00;99944.44;10460550;28;20059;-58
2022/01/04 02:22:14;;;;;;;11.18;7.88;;;;;;;8.06;100.00;99923.22;10461761;28;20052;-57
2022/01/04 02:27:17;;;;;;;11.60;8.57;;;;;;;7.76;100.00;99917.16;10476915;28;20059;-58
2022/01/04 02:32:20;;;;;;;12.70;8.75;;;;;;;7.94;100.00;99914.38;10461144;28;20053;-59
2022/01/04 02:37:25;;;;;;;12.98;8.35;;;;;;;7.81;100.00;99909.06;10460723;28;20060;-59
2022/01/04 02:42:27;;;;;;;10.40;8.68;;;;;;;7.84;100.00;99910.66;10460660;28;20374;-57
2022/01/04 02:47:29;;;;;;;14.23;9.57;;;;;;;7.65;100.00;99905.69;10460882;28;20067;-59
2022/01/04 02:52:33;;;;;;;19.25;10.93;;;;;;;7.71;100.00;99898.34;10460418;28;20057;-59
2022/01/04 02:57:36;;;;;;;15.77;10.45;;;;;;;7.79;100.00;99890.09;10460157;28;20072;-57
2022/01/04 03:02:39;;;;;;;17.05;11.13;;;;;;;7.67;100.00;99880.41;10459627;28;20059;-59
2022/01/04 03:07:41;;;;;;;18.33;9.30;;;;;;;7.85;100.00;99876.69;10476552;28;20477;-56
2022/01/04 03:12:44;;;;;;;13.48;9.77;;;;;;;7.84;100.00;99872.41;10460094;28;20057;-60
2022/01/04 03:17:46;;;;;;;14.82;10.57;;;;;;;7.79;100.00;99856.22;10459374;28;20477;-58
2022/01/04 03:22:49;;;;;;;18.35;13.30;;;;;;;7.73;100.00;99848.75;10459713;28;20045;-60
2022/01/04 03:27:51;;;;;;;12.15;10.02;;;;;;;7.75;100.00;99839.94;10458974;28;20045;-58
2022/01/04 03:32:54;;;;;;;23.20;14.43;;;;;;;7.92;100.00;99828.47;10458589;28;20509;-60
2022/01/04 03:37:56;;;;;;;19.58;13.10;;;;;;;7.74;100.00;99819.16;10458531;28;20057;-60
2022/01/04 03:42:59;;;;;;;18.05;12.95;;;;;;;7.76;100.00;99806.88;10458377;28;20060;-58
2022/01/04 03:48:01;;;;;;;14.45;11.52;;;;;;;7.65;100.00;99783.25;10473066;28;20053;-57
2022/01/04 03:53:03;;;;;;;18.35;12.70;;;;;;;7.64;100.00;99766.78;10458029;28;20159;-57
2022/01/04 03:58:05;;;;;;;15.88;10.80;;;;;;;7.91;100.00;99763.41;10457632;28;20052;-60
2022/01/04 04:03:09;;;;;;;16.25;12.13;;;;;;;7.72;100.00;99755.91;10457594;28;20072;-59
2022/01/04 04:08:11;;;;;;;17.80;13.27;;;;;;;7.52;100.00;99744.94;10456034;28;20045;-59
2022/01/04 04:13:13;;;;;;;19.60;11.98;;;;;;;7.62;100.00;99732.19;10457389;28;20060;-56
2022/01/04 04:18:17;;;;;;;17.58;12.68;;;;;;;7.63;100.00;99724.28;10456655;28;20045;-58
2022/01/04 04:23:19;;;;;;;22.88;13.20;;;;;;;7.67;100.00;99718.88;10456850;28;20405;-59
2022/01/04 04:28:21;;;;;;;17.23;11.60;;;;;;;7.77;100.00;99719.97;10471886;28;20048;-59
2022/01/04 04:33:24;;;;;;;17.33;13.00;;;;;;;7.70;100.00;99703.88;10456933;28;20055;-59
2022/01/04 04:38:26;;;;;;;22.55;15.80;;;;;;;7.55;100.00;99695.25;10456787;28;20056;-58
2022/01/04 04:43:29;;;;;;;18.33;13.05;;;;;;;7.73;100.00;99710.66;10456324;28;20082;-58
2022/01/04 04:48:31;;;;;;;18.15;12.10;;;;;;;7.62;100.00;99693.94;10456283;28;20056;-59
2022/01/04 04:53:33;;;;;;;20.80;11.88;;;;;;;7.67;100.00;99700.63;10456356;28;20056;-57
2022/01/04 04:58:36;;;;;;;16.92;11.00;;;;;;;7.72;100.00;99699.41;10456835;28;20049;-58
2022/01/04 05:03:38;;;;;;;17.23;10.95;;;;;;;7.59;100.00;99696.72;10455513;28;20049;-54
2022/01/04 05:08:40;;;;;;;21.58;11.95;;;;;;;7.51;100.00;99688.56;10469566;28;20045;-58
2022/01/04 05:13:43;;;;;;;23.40;13.20;;;;;;;7.60;100.00;99680.19;10456067;28;20053;-59
2022/01/04 05:18:45;;;;;;;26.58;12.30;;;;;;;7.34;100.00;99675.75;10454550;28;20456;-60
2022/01/04 05:23:47;;;;;;;16.50;10.82;;;;;;;7.56;100.00;99696.09;10462827;28;20049;-59
2022/01/04 05:28:50;;;;;;;18.75;10.77;;;;;;;7.52;100.00;99671.19;10463595;28;20440;-58
2022/01/04 05:33:52;;;;;;;19.38;12.88;;;;;;;7.50;100.00;99658.25;10463615;28;20053;-58
2022/01/04 05:38:54;;;;;;;19.15;12.05;;;;;;;7.35;100.00;99657.44;10463465;28;20068;-59
2022/01/04 05:43:57;;;;;;;18.35;12.73;;;;;;;7.31;100.00;99670.72;10465944;28;20053;-57
2022/01/04 05:48:59;;;;;;;17.27;11.88;;;;;;;7.46;100.00;99646.34;10473438;28;20055;-58
2022/01/04 05:54:02;;;;;;;22.38;13.23;;;;;;;7.37;100.00;99634.72;10462736;28;20115;-58
2022/01/04 05:59:04;;;;;;;19.55;12.20;;;;;;;7.36;100.00;99627.00;10462497;28;20045;-58
2022/01/04 06:04:06;;;;;;;24.08;12.93;;;;;;;7.22;100.00;99635.69;10462478;28;20055;-59
2022/01/04 06:09:18;;;;;;;15.82;12.20;;;;;;;7.36;100.00;99632.22;10460866;28;20054;-59
2022/01/04 06:19:42;;;;;;;21.33;13.63;;;;;;;7.34;100.00;99628.88;10461662;28;20527;-59
2022/01/04 06:24:44;;;;;;;24.00;12.50;;;;;;;7.44;100.00;99622.16;10462138;28;20056;-58
2022/01/04 06:29:47;;;;;;;21.10;13.93;;;;;;;7.54;100.00;99623.25;10467804;28;20067;-60
2022/01/04 06:34:50;;;;;;;17.30;11.95;;;;;;;7.58;100.00;99616.94;10443512;28;20048;-58
2022/01/04 06:39:52;;;;;;;20.25;13.30;;;;;;;7.39;100.00;99627.66;10459504;28;20056;-57
2022/01/04 06:44:55;;;;;;;18.90;13.00;;;;;;;7.63;100.00;99621.81;10460765;28;20052;-58
2022/01/04 06:49:57;;;;;;;22.17;14.70;;;;;;;7.46;100.00;99625.50;10460464;28;20382;-60
2022/01/04 06:54:59;;;;;;;22.15;13.00;;;;;;;7.54;100.00;99612.00;10460893;28;20056;-58
2022/01/04 07:00:04;;;;;;;23.65;15.43;;;;;;;7.33;100.00;99594.22;10460129;28;20052;-59
2022/01/04 07:05:06;;;;;;;26.25;14.80;;;;;;;7.41;100.00;99599.78;10463194;28;20489;-58
2022/01/04 07:10:09;;;;;;;24.48;14.70;;;;;;;7.49;100.00;99594.06;10476215;28;20053;-58
2022/01/04 07:15:11;;;;;;;24.35;15.50;;;;;;;7.34;100.00;99580.25;10459603;28;20056;-60
2022/01/04 07:20:13;;;;;;;24.92;16.13;;;;;;;7.38;100.00;99563.50;10459349;28;20049;-59
2022/01/04 07:25:16;;;;;;;23.00;14.30;;;;;;;7.62;100.00;99568.06;10459122;28;20477;-60
2022/01/04 07:30:18;;;;;;;28.27;16.35;;;;;;;7.31;100.00;99567.41;10458991;28;20049;-60
2022/01/04 07:35:20;;;;;;;25.30;15.75;;;;;;;7.34;100.00;99576.81;10457457;28;20374;-56
2022/01/04 07:40:23;;;;;;;26.60;16.63;;;;;;;7.39;100.00;99556.50;10457763;28;20528;-57
2022/01/04 07:45:27;;;;;;;32.85;17.63;;;;;;;7.49;100.00;99544.56;10457866;28;20057;-58
2022/01/04 07:50:29;;;;;;;29.70;18.13;;;;;;;7.32;100.00;99529.22;10471271;28;20555;-59
2022/01/04 07:55:32;;;;;;;28.95;18.35;;;;;;;7.43;100.00;99519.78;10458112;28;20049;-59
2022/01/04 08:00:34;;;;;;;27.52;17.25;;;;;;;7.48;100.00;99542.06;10457809;28;20049;-58
2022/01/04 08:05:37;;;;;;;23.88;15.88;;;;;;;7.47;100.00;99543.03;10458533;28;20061;-58
2022/01/04 08:10:40;;;;;;;34.40;21.13;;;;;;;7.31;100.00;99553.56;10457218;28;20484;-59
2022/01/04 08:15:42;;;;;;;32.47;19.17;;;;;;;7.30;100.00;99552.75;10456826;28;20064;-59
2022/01/04 08:20:45;;;;;;;30.85;18.58;;;;;;;7.53;100.00;99540.00;10457394;28;20045;-58
2022/01/04 08:25:48;;;;;;;31.17;20.40;;;;;;;7.50;100.00;99548.00;10456952;28;20045;-59
2022/01/04 08:30:50;;;;;;;30.67;20.20;;;;;;;7.32;100.00;99548.25;10466839;28;20492;-57
2022/01/04 08:36:13;;;;;;;31.75;20.75;;;;;;;7.37;100.00;99550.56;10463079;28;20057;-59
2022/01/04 08:41:15;;;;;;;27.77;19.42;;;;;;;7.41;100.00;99549.44;10456562;28;20057;-60
2022/01/04 08:46:17;;;;;;;30.92;20.60;;;;;;;7.34;100.00;99555.97;10455647;28;20052;-59
2022/01/04 08:51:20;;;;;;;30.63;18.60;;;;;;;7.49;100.00;99549.78;10456468;28;20049;-59
2022/01/04 08:56:22;;;;;;;29.55;21.05;;;;;;;7.48;100.00;99557.69;10461201;28;20048;-59
2022/01/04 09:01:24;;;;;;;41.88;22.98;;;;;;;7.32;100.00;99568.25;10464394;28;20049;-58
2022/01/04 09:06:28;;;;;;;35.58;22.15;;;;;;;7.40;100.00;99568.63;10464455;28;20057;-59
2022/01/04 09:11:30;;;;;;;35.28;22.83;;;;;;;7.39;100.00;99565.16;10462997;28;20053;-58
2022/01/04 09:21:54;;;;;;;40.40;23.10;;;;;;;7.31;100.00;99574.38;10463600;28;20493;-57
2022/01/04 09:26:57;;;;;;;35.95;21.48;;;;;;;7.50;100.00;99561.03;10462769;28;20044;-59
2022/01/04 09:32:01;;;;;;;39.65;23.52;;;;;;;7.51;100.00;99565.31;10463584;28;20057;-57
2022/01/04 09:37:03;;;;;;;33.05;22.63;;;;;;;7.60;100.00;99583.78;10463736;28;20053;-59
2022/01/04 09:42:09;;;;;;;38.58;22.88;;;;;;;7.80;100.00;99586.84;10462950;28;20136;-57
2022/01/04 09:47:12;;;;;;;36.65;22.65;;;;;;;7.59;100.00;99583.88;10462827;28;20052;-57
2022/01/04 09:52:19;;;;;;;37.70;24.05;;;;;;;7.58;100.00;99588.28;10462711;28;20049;-58
2022/01/04 09:57:22;;;;;;;38.22;24.83;;;;;;;7.67;100.00;99581.63;10462564;28;20052;-56
2022/01/04 10:02:30;;;;;;;45.50;27.90;;;;;;;7.50;100.00;99587.06;10462360;28;20053;-58
2022/01/04 10:07:33;;;;;;;40.75;24.55;;;;;;;7.57;100.00;99575.34;10461424;28;20056;-58
2022/01/04 10:12:48;;;;;;;37.83;24.70;;;;;;;7.66;100.00;99572.13;10462456;28;20053;-58
2022/01/04 10:17:56;;;;;;;43.92;26.92;;;;;;;7.75;100.00;99557.66;10462140;28;20124;-59
2022/01/04 10:23:16;;;;;;;43.60;26.58;;;;;;;7.82;100.00;99566.78;10460067;28;20505;-60
2022/01/04 10:28:41;;;;;;;35.55;22.35;;;;;;;7.76;100.00;99554.13;10461639;28;20041;-60
2022/01/04 10:33:44;;;;;;;39.42;22.65;;;;;;;7.85;100.00;99543.13;10461953;28;20107;-58
2022/01/04 10:38:48;;;;;;;51.10;29.05;;;;;;;7.72;100.00;99545.69;10473832;28;20056;-56
2022/01/04 10:44:02;;;;;;;38.58;25.27;;;;;;;7.90;100.00;99530.63;10462432;28;20056;-60
2022/01/04 10:49:15;;;;;;;50.55;29.60;;;;;;;7.72;100.00;99526.63;10459612;28;20049;-59
2022/01/04 10:54:19;;;;;;;41.58;27.33;;;;;;;7.80;100.00;99521.72;10460688;28;20056;-59
2022/01/04 10:59:28;;;;;;;41.47;25.20;;;;;;;7.76;100.00;99520.25;10459241;28;20052;-59
2022/01/04 11:04:30;;;;;;;44.28;27.35;;;;;;;7.70;100.00;99523.25;10460071;28;20485;-59
2022/01/04 11:09:33;;;;;;;44.50;27.75;;;;;;;7.62;100.00;99524.59;10442171;28;20444;-59
2022/01/04 11:14:36;;;;;;;45.63;28.35;;;;;;;7.66;100.00;99527.84;10459822;28;20059;-58
2022/01/04 11:19:38;;;;;;;42.38;26.02;;;;;;;7.68;100.00;99535.56;10459463;28;20079;-58
2022/01/04 11:24:46;;;;;;;46.30;26.83;;;;;;;7.65;100.00;99539.22;10473469;28;20052;-58
2022/01/04 11:29:49;;;;;;;45.40;28.05;;;;;;;7.65;100.00;99527.94;10458592;28;20041;-58
2022/01/04 11:35:15;;;;;;;32.25;21.27;;;;;;;7.63;100.00;99528.91;10457586;28;20053;-58
2022/01/04 11:40:41;;;;;;;34.35;22.40;;;;;;;7.74;100.00;99527.34;10459062;28;20136;-58
2022/01/04 11:45:47;;;;;;;25.58;16.83;;;;;;;7.50;100.00;99529.78;10458422;28;20499;-59
2022/01/04 11:50:49;;;;;;;25.48;16.77;;;;;;;7.47;100.00;99533.41;10458022;28;20482;-60
2022/01/04 11:56:03;;;;;;;21.25;14.10;;;;;;;7.50;100.00;99529.78;10458129;28;20049;-60
2022/01/04 12:01:06;;;;;;;22.02;14.52;;;;;;;7.40;100.00;99522.56;10470368;28;20087;-57
2022/01/04 12:06:10;;;;;;;24.23;14.90;;;;;;;7.33;100.00;99533.47;10457682;28;20045;-58
2022/01/04 12:11:29;;;;;;;21.77;13.32;;;;;;;7.27;100.00;99563.34;10457567;28;20060;-58
2022/01/04 12:16:38;;;;;;;19.80;13.05;;;;;;;7.13;100.00;99564.22;10457598;28;20401;-57
2022/01/04 12:21:41;;;;;;;16.63;11.43;;;;;;;7.15;100.00;99567.56;10457645;28;20083;-58
2022/01/04 12:26:44;;;;;;;14.02;9.25;;;;;;;7.34;100.00;99556.81;10457012;28;20063;-58
2022/01/04 12:31:51;;;;;;;12.57;6.30;;;;;;;7.07;100.00;99547.19;10456054;28;20057;-59
2022/01/04 12:36:54;;;;;;;9.68;5.72;;;;;;;7.17;100.00;99563.06;10457186;28;20068;-59
2022/01/04 12:41:57;;;;;;;10.40;5.63;;;;;;;6.97;100.00;99563.50;10469840;28;20144;-58
2022/01/04 12:47:02;;;;;;;11.32;4.38;;;;;;;6.88;100.00;99554.50;10456273;28;20049;-59
2022/01/04 12:52:07;;;;;;;7.55;3.80;;;;;;;6.79;100.00;99547.25;10456777;28;20053;-58
2022/01/04 12:57:14;;;;;;;3.70;3.13;;;;;;;6.91;100.00;99546.50;10456952;28;20046;-58
2022/01/04 13:02:23;;;;;;;3.70;2.42;;;;;;;7.07;100.00;99543.78;10456743;28;20056;-59
2022/01/04 13:07:34;;;;;;;6.75;4.25;;;;;;;7.20;100.00;99533.44;10456165;28;20053;-60
2022/01/04 13:12:41;;;;;;;5.20;3.33;;;;;;;7.09;100.00;99518.47;10454835;28;20409;-59
2022/01/04 13:17:53;;;;;;;4.35;3.05;;;;;;;7.27;100.00;99510.44;10456131;28;20053;-59
2022/01/04 13:22:56;;;;;;;4.90;3.60;;;;;;;6.99;100.00;99514.78;10471890;28;20055;-59
2022/01/04 13:28:03;;;;;;;7.35;4.38;;;;;;;6.94;100.00;99519.44;10455713;28;20408;-58
2022/01/04 13:33:10;;;;;;;8.52;4.43;;;;;;;7.03;100.00;99545.72;10456573;28;20056;-58
2022/01/04 13:38:16;;;;;;;12.95;4.75;;;;;;;6.95;100.00;99552.34;10455767;28;20103;-58
2022/01/04 13:43:28;;;;;;;8.27;4.03;;;;;;;7.10;100.00;99556.59;10459164;28;20045;-58
2022/01/04 13:48:34;;;;;;;9.05;3.83;;;;;;;7.13;100.00;99572.03;10462205;28;20045;-59
2022/01/04 13:53:42;;;;;;;6.72;3.60;;;;;;;7.25;100.00;99573.84;10463294;28;20080;-59
2022/01/04 13:58:47;;;;;;;8.98;5.07;;;;;;;7.35;100.00;99578.50;10469624;28;20084;-57
2022/01/04 14:03:52;;;;;;;8.52;4.15;;;;;;;7.15;100.00;99587.56;10471605;28;20115;-59
2022/01/04 14:08:54;;;;;;;3.75;3.40;;;;;;;7.20;100.00;99601.13;10463393;28;20059;-58
2022/01/04 14:14:10;;;;;;;6.75;2.58;;;;;;;6.82;100.00;99604.28;10461893;28;20405;-59
2022/01/04 14:19:20;;;;;;;4.97;2.40;;;;;;;6.80;100.00;99601.78;10461846;28;20045;-57
2022/01/04 14:24:33;;;;;;;5.70;2.15;;;;;;;6.98;100.00;99592.03;10461429;28;20132;-58
2022/01/04 14:29:39;;;;;;;4.53;2.17;;;;;;;6.82;100.00;99589.50;10461211;28;20393;-59
2022/01/04 14:34:41;;;;;;;5.88;1.85;;;;;;;6.76;100.00;99591.66;10461261;28;20053;-59
2022/01/04 14:39:43;;;;;;;2.88;1.63;;;;;;;6.91;100.00;99613.31;10461216;28;20064;-58
2022/01/04 14:44:46;;;;;;;4.57;2.00;;;;;;;6.68;100.00;99626.78;10460893;28;20052;-58
2022/01/04 14:49:48;;;;;;;5.28;2.28;;;;;;;6.65;100.00;99637.34;10460720;28;20052;-59
2022/01/04 14:54:56;;;;;;;2.78;1.83;;;;;;;6.40;100.00;99643.16;10460385;28;20072;-57
2022/01/04 15:00:02;;;;;;;1.13;1.02;;;;;;;6.11;100.00;99650.88;10460156;28;20053;-58
2022/01/04 15:05:04;;;;;;;4.75;1.65;;;;;;;6.06;100.00;99658.13;10460331;28;20053;-60
2022/01/04 15:10:07;;;;;;;4.22;1.02;;;;;;;6.10;100.00;99653.56;10459837;28;20053;-59
2022/01/04 15:15:10;;;;;;;1.17;0.90;;;;;;;5.65;100.00;99663.84;10458699;28;20131;-58
2022/01/04 15:20:12;;;;;;;6.53;2.95;;;;;;;6.01;100.00;99670.53;10473429;28;20047;-58
2022/01/04 15:25:17;;;;;;;3.40;2.17;;;;;;;5.85;100.00;99682.66;10457946;28;20507;-59
2022/01/04 15:30:20;;;;;;;2.15;1.75;;;;;;;5.52;100.00;99694.00;10459244;28;20049;-58
2022/01/04 15:35:23;;;;;;;1.83;1.20;;;;;;;5.43;100.00;99700.53;10456980;28;20053;-59
2022/01/04 15:40:25;;;;;;;3.70;1.08;;;;;;;5.45;100.00;99706.47;10458834;28;20052;-58
2022/01/04 15:45:28;;;;;;;4.82;1.25;;;;;;;5.44;100.00;99703.94;10458459;28;20049;-58
2022/01/04 15:50:30;;;;;;;5.72;1.23;;;;;;;5.24;100.00;99716.22;10458205;28;20056;-58
2022/01/04 15:55:32;;;;;;;4.00;1.42;;;;;;;5.24;100.00;99721.41;10458747;28;20044;-58
2022/01/04 16:00:36;;;;;;;6.50;4.30;;;;;;;5.13;100.00;99728.94;10457668;28;20056;-59
2022/01/04 16:05:38;;;;;;;29.80;14.95;;;;;;;5.19;100.00;99747.63;10457243;28;20060;-59
2022/01/04 16:10:44;;;;;;;29.25;16.30;;;;;;;5.10;100.00;99745.50;10457543;28;20132;-58
2022/01/04 16:15:58;;;;;;;14.40;7.95;;;;;;;4.79;100.00;99759.16;10457575;28;20045;-59
2022/01/04 16:26:34;;;;;;;5.53;1.73;;;;;;;4.79;100.00;99759.16;10457343;28;20048;-58
2022/01/04 16:31:37;;;;;;;5.03;2.85;;;;;;;4.98;100.00;99759.94;10457456;28;20048;-59
2022/01/04 16:36:41;;;;;;;9.15;2.80;;;;;;;4.66;100.00;99758.94;10457097;28;20045;-60
2022/01/04 16:41:45;;;;;;;6.60;2.13;;;;;;;4.81;100.00;99754.75;10455094;28;20052;-57
2022/01/04 16:46:48;;;;;;;7.28;2.80;;;;;;;4.94;100.00;99742.84;10457149;28;20051;-57
2022/01/04 16:51:51;;;;;;;6.35;1.50;;;;;;;4.74;100.00;99764.59;10456570;28;20059;-58
2022/01/04 16:56:54;;;;;;;8.95;1.83;;;;;;;5.01;100.00;99752.00;10456233;28;20132;-57
2022/01/04 17:01:56;;;;;;;9.65;2.25;;;;;;;4.59;100.00;99767.91;10455819;28;20408;-57
2022/01/04 17:06:59;;;;;;;7.78;1.70;;;;;;;4.40;100.00;99763.63;10454859;28;20479;-57
2022/01/04 17:17:05;;;;;;;4.88;1.60;;;;;;;4.72;100.00;99762.97;10460391;28;20045;-57
2022/01/04 17:22:09;;;;;;;8.50;1.77;;;;;;;4.75;100.00;99757.66;10463931;28;20440;-58
2022/01/04 17:27:32;;;;;;;9.70;2.25;;;;;;;4.99;100.00;99763.34;10472444;28;20052;-58
2022/01/04 17:32:34;;;;;;;3.58;1.77;;;;;;;4.97;100.00;99779.00;10463778;28;20439;-57
2022/01/04 17:37:37;;;;;;;4.45;2.25;;;;;;;4.84;100.00;99772.75;10463429;28;20068;-56
2022/01/04 17:42:59;;;;;;;8.30;3.10;;;;;;;4.92;100.00;99762.81;10463552;28;20404;-59
2022/01/04 17:48:02;;;;;;;10.82;4.13;;;;;;;4.89;100.00;99764.72;10463053;28;20044;-57
2022/01/04 17:53:05;;;;;;;9.75;3.22;;;;;;;5.05;100.00;99768.25;10462807;28;20413;-57
2022/01/04 17:58:08;;;;;;;11.80;2.97;;;;;;;4.78;100.00;99773.06;10462865;28;20049;-57
2022/01/04 18:03:10;;;;;;;8.07;2.67;;;;;;;4.99;100.00;99777.19;10471518;28;20045;-56
2022/01/04 18:08:13;;;;;;;5.65;3.00;;;;;;;4.78;100.00;99778.25;10464037;28;20401;-57
2022/01/04 18:13:16;;;;;;;5.10;2.10;;;;;;;4.85;100.00;99774.44;10462006;28;20048;-56
2022/01/04 18:18:18;;;;;;;13.60;2.10;;;;;;;4.77;100.00;99777.38;10461606;28;20379;-58
2022/01/04 18:23:21;;;;;;;7.78;2.28;;;;;;;4.70;100.00;99772.59;10461603;28;20049;-58
2022/01/04 18:28:25;;;;;;;7.70;2.65;;;;;;;4.82;100.00;99779.75;10460536;28;20064;-55
2022/01/04 18:33:27;;;;;;;10.00;3.30;;;;;;;5.27;100.00;99780.13;10461426;28;20053;-58
2022/01/04 18:38:30;;;;;;;9.00;4.32;;;;;;;4.98;100.00;99778.09;10459862;28;20152;-58
2022/01/04 18:43:32;;;;;;;9.40;4.78;;;;;;;4.77;100.00;99785.16;10462608;28;20049;-57
2022/01/04 18:48:34;;;;;;;12.93;4.72;;;;;;;4.88;100.00;99786.41;10470422;28;20053;-56
2022/01/04 18:53:38;;;;;;;12.65;4.55;;;;;;;4.76;100.00;99796.47;10460673;28;20053;-58
2022/01/04 18:58:40;;;;;;;12.93;4.80;;;;;;;4.99;100.00;99805.72;10460262;28;20052;-57
2022/01/04 19:03:43;;;;;;;18.85;6.55;;;;;;;5.03;100.00;99801.22;10460004;28;20505;-58
2022/01/04 19:08:46;;;;;;;7.50;3.83;;;;;;;4.89;100.00;99791.50;10460038;28;20063;-54
2022/01/04 19:13:49;;;;;;;11.70;3.80;;;;;;;4.79;100.00;99803.25;10459786;28;20053;-56
2022/01/04 19:18:51;;;;;;;14.85;3.53;;;;;;;4.81;100.00;99798.84;10459640;28;20045;-57
2022/01/04 19:23:53;;;;;;;8.30;2.50;;;;;;;4.95;100.00;99814.56;10466066;28;20124;-57
2022/01/04 19:28:56;;;;;;;6.97;2.70;;;;;;;4.74;100.00;99813.00;10463740;28;20045;-57
2022/01/04 19:39:13;;;;;;;14.35;3.65;;;;;;;5.05;100.00;99814.09;10458118;28;20057;-58
2022/01/04 19:44:17;;;;;;;6.40;2.47;;;;;;;4.69;100.00;99805.47;10457588;28;20128;-56
2022/01/04 19:49:20;;;;;;;10.93;3.13;;;;;;;4.77;100.00;99820.66;10458008;28;20059;-57
2022/01/04 19:54:23;;;;;;;8.02;2.72;;;;;;;4.64;100.00;99808.28;10457993;28;20386;-56
2022/01/04 19:59:26;;;;;;;8.77;3.03;;;;;;;4.58;100.00;99808.56;10457964;28;20489;-59
2022/01/04 20:04:28;;;;;;;7.32;3.15;;;;;;;4.69;100.00;99815.84;10467294;28;20045;-56
2022/01/04 20:09:30;;;;;;;13.48;6.28;;;;;;;4.80;100.00;99808.38;10457803;28;20056;-58
2022/01/04 20:14:33;;;;;;;10.77;4.05;;;;;;;4.79;100.00;99817.06;10457440;28;20052;-54
2022/01/04 20:19:35;;;;;;;12.07;5.97;;;;;;;4.47;100.00;99822.06;10457550;28;20045;-57
2022/01/04 20:24:39;;;;;;;7.28;3.13;;;;;;;4.68;100.00;99836.66;10457152;28;20055;-57
2022/01/04 20:29:44;;;;;;;10.57;3.45;;;;;;;4.53;100.00;99831.28;10456887;28;20052;-57
2022/01/04 20:34:47;;;;;;;15.55;4.68;;;;;;;4.64;100.00;99835.97;10457089;28;20060;-56
2022/01/04 20:39:49;;;;;;;9.07;4.43;;;;;;;4.50;100.00;99839.22;10457076;28;20087;-56
2022/01/04 20:44:51;;;;;;;10.20;3.55;;;;;;;4.41;100.00;99850.03;10466693;28;20053;-56
2022/01/04 20:49:58;;;;;;;16.27;6.57;;;;;;;4.39;100.00;99851.84;10456608;28;20045;-56
2022/01/04 20:55:00;;;;;;;15.93;5.20;;;;;;;4.39;100.00;99857.03;10456521;28;20053;-58
2022/01/04 21:00:05;;;;;;;15.35;5.43;;;;;;;4.40;100.00;99854.34;10456292;28;20060;-57
2022/01/04 21:05:08;;;;;;;23.08;7.75;;;;;;;4.27;100.00;99851.50;10456788;28;20055;-56
2022/01/04 21:10:11;;;;;;;16.85;4.55;;;;;;;4.34;100.00;99856.38;10456282;28;20055;-56
2022/01/04 21:15:13;;;;;;;13.65;3.25;;;;;;;4.22;100.00;99853.47;10455951;28;20057;-57
2022/01/04 21:20:16;;;;;;;15.07;4.78;;;;;;;4.33;100.00;99860.75;10455779;28;20506;-56
2022/01/04 21:25:18;;;;;;;18.10;6.05;;;;;;;4.12;100.00;99854.81;10464471;28;20421;-59
2022/01/04 21:30:21;;;;;;;15.43;4.00;;;;;;;4.07;100.00;99854.19;10454596;28;20515;-57
2022/01/04 21:35:23;;;;;;;8.68;4.05;;;;;;;4.08;100.00;99867.06;10455775;28;20057;-55
2022/01/04 21:40:26;;;;;;;12.85;3.55;;;;;;;4.22;100.00;99887.16;10455405;28;20489;-56
2022/01/04 21:45:28;;;;;;;11.00;2.85;;;;;;;4.13;100.00;99891.91;10455462;28;20052;-55
2022/01/04 21:50:31;;;;;;;11.07;3.80;;;;;;;4.02;100.00;99893.22;10454509;28;20045;-57
2022/01/04 21:55:33;;;;;;;12.95;2.72;;;;;;;4.10;100.00;99900.66;10455386;28;20052;-54
2022/01/04 22:00:35;;;;;;;10.88;2.50;;;;;;;4.09;100.00;99907.59;10455278;28;20051;-54
2022/01/04 22:05:38;;;;;;;6.15;2.20;;;;;;;4.10;100.00;99921.38;10470748;28;20049;-55
2022/01/04 22:10:40;;;;;;;7.40;2.28;;;;;;;3.69;100.00;99913.69;10462295;28;20608;-56
2022/01/04 22:15:43;;;;;;;5.78;1.60;;;;;;;3.78;100.00;99913.25;10460930;28;20060;-56
2022/01/04 22:20:45;;;;;;;13.98;1.75;;;;;;;3.67;100.00;99925.84;10461970;28;20064;-57
2022/01/04 22:25:49;;;;;;;6.43;2.13;;;;;;;3.72;100.00;99923.91;10460170;28;20489;-55
2022/01/04 22:30:52;;;;;;;7.38;2.38;;;;;;;3.53;100.00;99934.19;10461466;28;20489;-56
2022/01/04 22:35:54;;;;;;;8.55;2.10;;;;;;;3.71;100.00;99940.34;10461426;28;20056;-57
2022/01/04 22:40:57;;;;;;;11.43;2.20;;;;;;;3.65;100.00;99941.44;10461451;28;20060;-56
2022/01/04 22:45:59;;;;;;;6.13;1.77;;;;;;;3.59;100.00;99940.88;10470074;28;20059;-58
2022/01/04 22:51:02;;;;;;;11.60;1.80;;;;;;;3.40;100.00;99944.22;10460760;28;20048;-57
2022/01/04 22:56:04;;;;;;;10.18;1.70;;;;;;;3.33;100.00;99955.75;10460675;28;20060;-56
2022/01/04 23:01:06;;;;;;;6.28;2.42;;;;;;;3.31;100.00;99949.75;10460331;28;20060;-58
2022/01/04 23:06:10;;;;;;;5.78;2.42;;;;;;;3.26;100.00;99949.97;10459859;28;20408;-56
2022/01/04 23:11:12;;;;;;;12.18;1.88;;;;;;;3.31;100.00;99950.63;10460006;28;20477;-56
2022/01/04 23:16:15;;;;;;;14.88;2.28;;;;;;;3.34;100.00;99960.00;10459785;28;20057;-54
2022/01/04 23:21:17;;;;;;;9.77;1.60;;;;;;;3.35;100.00;99952.16;10462472;28;20045;-56
2022/01/04 23:26:19;;;;;;;8.10;1.58;;;;;;;3.34;100.00;99955.66;10464528;28;20063;-58
2022/01/04 23:31:22;;;;;;;11.45;2.67;;;;;;;3.16;100.00;99948.63;10459286;28;20049;-54
2022/01/04 23:36:44;;;;;;;12.05;2.80;;;;;;;3.16;100.00;99951.22;10459062;28;20052;-56
2022/01/04 23:41:46;;;;;;;11.35;2.55;;;;;;;3.28;100.00;99957.66;10458667;28;20057;-53